Harbor Emperor — WCY6430 — position and weather

sailwx.info

Track history (hours):
 
Tides and Currents Weather Stations Pressure Air Temp Water Temp Dewpoint Dewpoint Depression Visibility Wind Speed Wind Dir Waves Ship Positions

Harbor Emperor

Owner: BLUE & GOLD FLEET, SAN FRANCISCO, CA. More information available from US FCC via Universal Licensing System and Coast Guard Vessel Documentation Center.

Last reported at 2014-Dec-22 20:33 UTC. Time now 2014-Dec-22 20:38 UTC.
Position N 37°47' W 122°23'.

Length 31 m.

Type: Passenger vessel. MMSI: 366985270.

Date/timePositionNaut miles runAvg speedWind from/ knotsBaromVisibWave heightAir tempDewpointWater temp
2014-Dec-22 20:33N 37°47' W 122°23'2 1.9
2014-Dec-22 19:28N 37°49' W 122°25'0 0.0
2014-Dec-22 18:31N 37°49' W 122°25'0 0.0
2014-Dec-22 01:33N 37°49' W 122°25'0 0.0
2014-Dec-22 00:34N 37°49' W 122°25'3 2.6
2014-Dec-21 23:33N 37°49' W 122°28'3 2.6
2014-Dec-21 22:33N 37°49' W 122°25'2 2.3
2014-Dec-21 21:33N 37°49' W 122°28'3 2.6
2014-Dec-21 20:33N 37°49' W 122°24'1 0.6
2014-Dec-21 19:34N 37°49' W 122°25'3 2.6
2014-Dec-21 18:33N 37°49' W 122°28'3 2.5
2014-Dec-21 17:31N 37°49' W 122°25'0 0.0
2014-Dec-21 03:05N 37°49' W 122°25'2 4.1
2014-Dec-21 02:34N 37°47' W 122°23'2 2.2
2014-Dec-21 01:34N 37°49' W 122°25'0 0.1
2014-Dec-21 00:34N 37°49' W 122°25'0 0.0
2014-Dec-20 23:33N 37°49' W 122°25'0 0.0
2014-Dec-20 22:23N 37°49' W 122°25'0 0.0
2014-Dec-20 21:32N 37°49' W 122°25'0 0.0
2014-Dec-20 20:29N 37°49' W 122°25'0 0.0
2014-Dec-20 19:29N 37°49' W 122°25'0 0.0
2014-Dec-20 18:32N 37°49' W 122°25'0 0.0
2014-Dec-20 17:26N 37°49' W 122°25'0 0.0
2014-Dec-20 16:29N 37°49' W 122°25'0 0.0
2014-Dec-20 15:32N 37°49' W 122°25'0 0.0
2014-Dec-20 14:29N 37°49' W 122°25'0 0.0
2014-Dec-20 13:32N 37°49' W 122°25'0 0.0
2014-Dec-20 12:32N 37°49' W 122°25'0 0.0
2014-Dec-20 11:32N 37°49' W 122°25'0 0.0
2014-Dec-20 10:29N 37°49' W 122°25'0 0.0
2014-Dec-20 09:32N 37°49' W 122°25'0 0.0
2014-Dec-20 08:32N 37°49' W 122°25'0 0.0
2014-Dec-20 07:32N 37°49' W 122°25'0 0.0
2014-Dec-20 06:29N 37°49' W 122°25'0 0.0
2014-Dec-20 05:32N 37°49' W 122°25'0 0.0
2014-Dec-20 04:29N 37°49' W 122°25'0 0.0
2014-Dec-20 03:32N 37°49' W 122°25'0 0.0
2014-Dec-20 02:29N 37°49' W 122°25'0 0.0
2014-Dec-20 01:29N 37°49' W 122°25'0 0.0
2014-Dec-20 00:31N 37°49' W 122°25'3 3.1
2014-Dec-19 23:34N 37°49' W 122°28'3 3.0
2014-Dec-19 22:34N 37°49' W 122°25'3 3.4
2014-Dec-19 21:34N 37°49' W 122°29'3 3.1
2014-Dec-19 20:33N 37°49' W 122°25'1 0.9
2014-Dec-19 19:33N 37°49' W 122°25'0 0.0
2014-Dec-19 18:34N 37°49' W 122°25'0 0.0
2014-Dec-19 17:31N 37°49' W 122°25'0 0.0
2014-Dec-19 16:31N 37°49' W 122°25'0 0.0
2014-Dec-19 15:31N 37°49' W 122°25'0 0.0
2014-Dec-19 14:31N 37°49' W 122°25'0 0.0
2014-Dec-19 13:31N 37°49' W 122°25'0 0.0
2014-Dec-19 12:31N 37°49' W 122°25'0 0.0
2014-Dec-19 11:31N 37°49' W 122°25'0 0.0
2014-Dec-19 10:31N 37°49' W 122°25'0 0.0
2014-Dec-19 09:31N 37°49' W 122°25'0 0.0
2014-Dec-19 08:31N 37°49' W 122°25'0 0.0
2014-Dec-19 07:31N 37°49' W 122°25'0 0.0
2014-Dec-19 06:31N 37°49' W 122°25'0 0.0
2014-Dec-19 05:31N 37°49' W 122°25'0 0.0
2014-Dec-19 04:31N 37°49' W 122°25'0 0.0
2014-Dec-19 03:31N 37°49' W 122°25'0 0.0
2014-Dec-19 02:25N 37°49' W 122°25'0 0.0
2014-Dec-19 01:31N 37°49' W 122°25'0 0.0
2014-Dec-19 00:31N 37°49' W 122°25'0 0.0
2014-Dec-18 23:31N 37°49' W 122°25'0 0.0
2014-Dec-18 22:31N 37°49' W 122°25'0 0.0
2014-Dec-18 21:31N 37°49' W 122°25'0 0.0
2014-Dec-18 20:31N 37°49' W 122°25'0 0.0
2014-Dec-18 19:28N 37°49' W 122°25'0 0.0
2014-Dec-18 18:31N 37°49' W 122°25'0 0.0
2014-Dec-18 17:31N 37°49' W 122°25'0 0.0
2014-Dec-18 16:31N 37°49' W 122°25'0 0.0
2014-Dec-18 15:31N 37°49' W 122°25'0 0.0
2014-Dec-18 14:28N 37°49' W 122°25'0 0.0
2014-Dec-18 13:28N 37°49' W 122°25'0 0.0
2014-Dec-18 12:31N 37°49' W 122°25'0 0.0
2014-Dec-18 11:31N 37°49' W 122°25'0 0.0
2014-Dec-18 10:31N 37°49' W 122°25'0 0.0
2014-Dec-18 09:31N 37°49' W 122°25'0 0.0
2014-Dec-18 08:31N 37°49' W 122°25'0 0.0
2014-Dec-18 07:31N 37°49' W 122°25'0 0.0
2014-Dec-18 06:31N 37°49' W 122°25'0 0.0
2014-Dec-18 05:31N 37°49' W 122°25'0 0.0
2014-Dec-18 04:32N 37°49' W 122°25'0 0.0
2014-Dec-18 03:32N 37°49' W 122°25'0 0.0
2014-Dec-18 02:32N 37°49' W 122°25'0 0.0
2014-Dec-18 01:32N 37°49' W 122°25'0 0.0
2014-Dec-18 00:32N 37°49' W 122°25'0 0.0
2014-Dec-17 23:32N 37°49' W 122°25'0 0.0
2014-Dec-17 22:32N 37°49' W 122°25'0 0.0
2014-Dec-17 21:32N 37°49' W 122°25'0 0.0
2014-Dec-17 20:32N 37°49' W 122°25'0 0.0
2014-Dec-17 19:32N 37°49' W 122°25'0 0.0
2014-Dec-17 18:32N 37°49' W 122°25'0 0.0
2014-Dec-17 17:32N 37°49' W 122°25'0 0.0
2014-Dec-17 16:32N 37°49' W 122°25'0 0.0
2014-Dec-17 15:32N 37°49' W 122°25'0 0.0
2014-Dec-17 14:29N 37°49' W 122°25'0 0.0
2014-Dec-17 13:32N 37°49' W 122°25'0 0.0
2014-Dec-17 12:32N 37°49' W 122°25'0 0.0
2014-Dec-17 11:32N 37°49' W 122°25'0 0.0
2014-Dec-17 10:32N 37°49' W 122°25'0 0.0
2014-Dec-17 09:32N 37°49' W 122°25'0 0.0
2014-Dec-17 08:32N 37°49' W 122°25'0 0.0
2014-Dec-17 07:32N 37°49' W 122°25'0 0.0
2014-Dec-17 06:32N 37°49' W 122°25'0 0.0
2014-Dec-17 05:32N 37°49' W 122°25'0 0.0
2014-Dec-17 04:32N 37°49' W 122°25'0 0.0
2014-Dec-17 03:32N 37°49' W 122°25'0 0.0
2014-Dec-17 02:33N 37°49' W 122°25'0 0.0
2014-Dec-17 01:33N 37°49' W 122°25'0 0.0
2014-Dec-17 00:30N 37°49' W 122°25'0 0.0
2014-Dec-16 23:30N 37°49' W 122°25'0 0.0
2014-Dec-16 22:33N 37°49' W 122°25'0 0.0
2014-Dec-16 21:33N 37°49' W 122°25'0 0.0
2014-Dec-16 20:33N 37°49' W 122°25'0 0.0
2014-Dec-16 19:33N 37°49' W 122°25'0 0.0
2014-Dec-16 18:30N 37°49' W 122°25'0 0.0
2014-Dec-16 17:33N 37°49' W 122°25'0 0.0
2014-Dec-16 16:30N 37°49' W 122°25'0 0.0
2014-Dec-16 15:33N 37°49' W 122°25'0 0.0
2014-Dec-16 14:33N 37°49' W 122°25'0 0.0
2014-Dec-16 13:33N 37°49' W 122°25'0 0.0
2014-Dec-16 12:33N 37°49' W 122°25'0 0.0
2014-Dec-16 11:33N 37°49' W 122°25'0 0.0
2014-Dec-16 10:33N 37°49' W 122°25'0 0.0
2014-Dec-16 09:26N 37°49' W 122°25'0 0.0
2014-Dec-16 08:29N 37°49' W 122°25'0 0.0
2014-Dec-16 07:33N 37°49' W 122°25'0 0.0
2014-Dec-16 06:32N 37°49' W 122°25'0 0.0
2014-Dec-16 05:24N 37°49' W 122°25'0 0.0
2014-Dec-16 04:23N 37°49' W 122°25'0 0.0
2014-Dec-16 03:30N 37°49' W 122°25'0 0.0
2014-Dec-16 02:18N 37°49' W 122°25'0 0.0
2014-Dec-16 01:33N 37°49' W 122°25'0 0.0
2014-Dec-15 23:32N 37°49' W 122°25'0 0.0
2014-Dec-15 22:32N 37°49' W 122°25'0 0.0
2014-Dec-15 21:29N 37°49' W 122°25'0 0.0
2014-Dec-15 20:32N 37°49' W 122°25'0 0.0
2014-Dec-15 19:32N 37°49' W 122°25'0 0.0
2014-Dec-15 18:32N 37°49' W 122°25'0 0.0
2014-Dec-15 17:29N 37°49' W 122°25'0 0.0
2014-Dec-15 16:32N 37°49' W 122°25'0 0.0
2014-Dec-15 15:23N 37°49' W 122°25'0 0.0
2014-Dec-15 14:32N 37°49' W 122°25'0 0.0
2014-Dec-15 13:29N 37°49' W 122°25'0 0.0
2014-Dec-15 12:30N 37°49' W 122°25'0 0.0
2014-Dec-15 11:29N 37°49' W 122°25'0 0.0
2014-Dec-15 10:29N 37°49' W 122°25'0 0.0
2014-Dec-15 09:32N 37°49' W 122°25'0 0.0
2014-Dec-15 08:32N 37°49' W 122°25'0 0.0
2014-Dec-15 07:32N 37°49' W 122°25'0 0.0
2014-Dec-15 06:32N 37°49' W 122°25'0 0.0
2014-Dec-15 05:29N 37°49' W 122°25'0 0.0
2014-Dec-15 04:32N 37°49' W 122°25'0 0.0
2014-Dec-15 03:32N 37°49' W 122°25'0 0.0
2014-Dec-15 02:32N 37°49' W 122°25'0 0.0
2014-Dec-15 01:26N 37°49' W 122°25'0 0.0
2014-Dec-15 00:32N 37°49' W 122°25'0 0.0
2014-Dec-14 23:32N 37°49' W 122°25'0 0.0
2014-Dec-14 22:32N 37°49' W 122°25'0 0.0
2014-Dec-14 21:32N 37°49' W 122°25'0 0.0
2014-Dec-14 20:32N 37°49' W 122°25'0 0.0
2014-Dec-14 19:32N 37°49' W 122°25'0 0.0
2014-Dec-14 18:32N 37°49' W 122°25'0 0.0
2014-Dec-14 17:32N 37°49' W 122°25'0 0.0
2014-Dec-14 16:32N 37°49' W 122°25'0 0.0
2014-Dec-14 15:32N 37°49' W 122°25'0 0.0
2014-Dec-14 14:32N 37°49' W 122°25'0 0.0
2014-Dec-14 13:32N 37°49' W 122°25'0 0.0
2014-Dec-14 12:32N 37°49' W 122°25'0 0.0
2014-Dec-14 11:32N 37°49' W 122°25'0 0.0
2014-Dec-14 10:32N 37°49' W 122°25'0 0.0
2014-Dec-14 09:32N 37°49' W 122°25'0 0.0
2014-Dec-14 08:32N 37°49' W 122°25'0 0.0
2014-Dec-14 07:29N 37°49' W 122°25'0 0.0
2014-Dec-14 06:32N 37°49' W 122°25'0 0.0
2014-Dec-14 05:32N 37°49' W 122°25'0 0.0
2014-Dec-14 04:32N 37°49' W 122°25'0 0.0
2014-Dec-14 03:32N 37°49' W 122°25'0 0.0
2014-Dec-14 02:32N 37°49' W 122°25'0 0.0
2014-Dec-14 01:32N 37°49' W 122°25'0 0.0
2014-Dec-14 00:32N 37°49' W 122°25'0 0.0
2014-Dec-13 23:32N 37°49' W 122°25'0 0.0
2014-Dec-13 22:32N 37°49' W 122°25'0 0.0
2014-Dec-13 21:26N 37°49' W 122°25'0 0.0
2014-Dec-13 20:29N 37°49' W 122°25'0 0.0
2014-Dec-13 19:32N 37°49' W 122°25'0 0.0
2014-Dec-13 18:32N 37°49' W 122°25'0 0.0
2014-Dec-13 17:32N 37°49' W 122°25'0 0.0
2014-Dec-13 16:32N 37°49' W 122°25'0 0.0
2014-Dec-13 15:32N 37°49' W 122°25'0 0.0
2014-Dec-13 14:32N 37°49' W 122°25'0 0.0
2014-Dec-13 13:32N 37°49' W 122°25'0 0.0
2014-Dec-13 12:32N 37°49' W 122°25'0 0.0
2014-Dec-13 11:29N 37°49' W 122°25'0 0.0
2014-Dec-13 10:32N 37°49' W 122°25'0 0.0
2014-Dec-13 09:29N 37°49' W 122°25'0 0.0
2014-Dec-13 08:32N 37°49' W 122°25'0 0.0
2014-Dec-13 07:32N 37°49' W 122°25'0 0.0
2014-Dec-13 06:32N 37°49' W 122°25'0 0.0
2014-Dec-13 05:29N 37°49' W 122°25'0 0.0
2014-Dec-13 04:29N 37°49' W 122°25'0 0.0
2014-Dec-13 03:32N 37°49' W 122°25'0 0.0
2014-Dec-13 02:32N 37°49' W 122°25'0 0.0
2014-Dec-13 01:32N 37°49' W 122°25'0 0.0
2014-Dec-13 00:32N 37°49' W 122°25'0 0.0
2014-Dec-12 23:29N 37°49' W 122°25'0 0.0
2014-Dec-12 22:32N 37°49' W 122°25'0 0.0
2014-Dec-12 21:32N 37°49' W 122°25'  
Track history (hours):
 
Tides and Currents Weather Stations Pressure Air Temp Water Temp Dewpoint Dewpoint Depression Visibility Wind Speed Wind Dir Waves Ship Positions

Harbor Emperor

Owner: BLUE & GOLD FLEET, SAN FRANCISCO, CA. More information available from US FCC via Universal Licensing System and Coast Guard Vessel Documentation Center.

Last reported at 2014-Dec-22 20:33 UTC. Time now 2014-Dec-22 20:39 UTC.
Position N 37°47' W 122°23'.

Length 31 m.

Type: Passenger vessel. MMSI: 366985270.

Date/timePositionNaut miles runAvg speedWind from/ knotsBaromVisibWave heightAir tempDewpointWater temp
2014-Dec-22 20:33N 37°47' W 122°23'2 1.9
2014-Dec-22 19:28N 37°49' W 122°25'0 0.0
2014-Dec-22 18:31N 37°49' W 122°25'0 0.0
2014-Dec-22 01:33N 37°49' W 122°25'0 0.0
2014-Dec-22 00:34N 37°49' W 122°25'3 2.6
2014-Dec-21 23:33N 37°49' W 122°28'3 2.6
2014-Dec-21 22:33N 37°49' W 122°25'2 2.3
2014-Dec-21 21:33N 37°49' W 122°28'3 2.6
2014-Dec-21 20:33N 37°49' W 122°24'1 0.6
2014-Dec-21 19:34N 37°49' W 122°25'3 2.6
2014-Dec-21 18:33N 37°49' W 122°28'3 2.5
2014-Dec-21 17:31N 37°49' W 122°25'0 0.0
2014-Dec-21 03:05N 37°49' W 122°25'2 4.1
2014-Dec-21 02:34N 37°47' W 122°23'2 2.2
2014-Dec-21 01:34N 37°49' W 122°25'0 0.1
2014-Dec-21 00:34N 37°49' W 122°25'0 0.0
2014-Dec-20 23:33N 37°49' W 122°25'0 0.0
2014-Dec-20 22:23N 37°49' W 122°25'0 0.0
2014-Dec-20 21:32N 37°49' W 122°25'0 0.0
2014-Dec-20 20:29N 37°49' W 122°25'0 0.0
2014-Dec-20 19:29N 37°49' W 122°25'0 0.0
2014-Dec-20 18:32N 37°49' W 122°25'0 0.0
2014-Dec-20 17:26N 37°49' W 122°25'0 0.0
2014-Dec-20 16:29N 37°49' W 122°25'0 0.0
2014-Dec-20 15:32N 37°49' W 122°25'0 0.0
2014-Dec-20 14:29N 37°49' W 122°25'0 0.0
2014-Dec-20 13:32N 37°49' W 122°25'0 0.0
2014-Dec-20 12:32N 37°49' W 122°25'0 0.0
2014-Dec-20 11:32N 37°49' W 122°25'0 0.0
2014-Dec-20 10:29N 37°49' W 122°25'0 0.0
2014-Dec-20 09:32N 37°49' W 122°25'0 0.0
2014-Dec-20 08:32N 37°49' W 122°25'0 0.0
2014-Dec-20 07:32N 37°49' W 122°25'0 0.0
2014-Dec-20 06:29N 37°49' W 122°25'0 0.0
2014-Dec-20 05:32N 37°49' W 122°25'0 0.0
2014-Dec-20 04:29N 37°49' W 122°25'0 0.0
2014-Dec-20 03:32N 37°49' W 122°25'0 0.0
2014-Dec-20 02:29N 37°49' W 122°25'0 0.0
2014-Dec-20 01:29N 37°49' W 122°25'0 0.0
2014-Dec-20 00:31N 37°49' W 122°25'3 3.1
2014-Dec-19 23:34N 37°49' W 122°28'3 3.0
2014-Dec-19 22:34N 37°49' W 122°25'3 3.4
2014-Dec-19 21:34N 37°49' W 122°29'3 3.1
2014-Dec-19 20:33N 37°49' W 122°25'1 0.9
2014-Dec-19 19:33N 37°49' W 122°25'0 0.0
2014-Dec-19 18:34N 37°49' W 122°25'0 0.0
2014-Dec-19 17:31N 37°49' W 122°25'0 0.0
2014-Dec-19 16:31N 37°49' W 122°25'0 0.0
2014-Dec-19 15:31N 37°49' W 122°25'0 0.0
2014-Dec-19 14:31N 37°49' W 122°25'0 0.0
2014-Dec-19 13:31N 37°49' W 122°25'0 0.0
2014-Dec-19 12:31N 37°49' W 122°25'0 0.0
2014-Dec-19 11:31N 37°49' W 122°25'0 0.0
2014-Dec-19 10:31N 37°49' W 122°25'0 0.0
2014-Dec-19 09:31N 37°49' W 122°25'0 0.0
2014-Dec-19 08:31N 37°49' W 122°25'0 0.0
2014-Dec-19 07:31N 37°49' W 122°25'0 0.0
2014-Dec-19 06:31N 37°49' W 122°25'0 0.0
2014-Dec-19 05:31N 37°49' W 122°25'0 0.0
2014-Dec-19 04:31N 37°49' W 122°25'0 0.0
2014-Dec-19 03:31N 37°49' W 122°25'0 0.0
2014-Dec-19 02:25N 37°49' W 122°25'0 0.0
2014-Dec-19 01:31N 37°49' W 122°25'0 0.0
2014-Dec-19 00:31N 37°49' W 122°25'0 0.0
2014-Dec-18 23:31N 37°49' W 122°25'0 0.0
2014-Dec-18 22:31N 37°49' W 122°25'0 0.0
2014-Dec-18 21:31N 37°49' W 122°25'0 0.0
2014-Dec-18 20:31N 37°49' W 122°25'0 0.0
2014-Dec-18 19:28N 37°49' W 122°25'0 0.0
2014-Dec-18 18:31N 37°49' W 122°25'0 0.0
2014-Dec-18 17:31N 37°49' W 122°25'0 0.0
2014-Dec-18 16:31N 37°49' W 122°25'0 0.0
2014-Dec-18 15:31N 37°49' W 122°25'0 0.0
2014-Dec-18 14:28N 37°49' W 122°25'0 0.0
2014-Dec-18 13:28N 37°49' W 122°25'0 0.0
2014-Dec-18 12:31N 37°49' W 122°25'0 0.0
2014-Dec-18 11:31N 37°49' W 122°25'0 0.0
2014-Dec-18 10:31N 37°49' W 122°25'0 0.0
2014-Dec-18 09:31N 37°49' W 122°25'0 0.0
2014-Dec-18 08:31N 37°49' W 122°25'0 0.0
2014-Dec-18 07:31N 37°49' W 122°25'0 0.0
2014-Dec-18 06:31N 37°49' W 122°25'0 0.0
2014-Dec-18 05:31N 37°49' W 122°25'0 0.0
2014-Dec-18 04:32N 37°49' W 122°25'0 0.0
2014-Dec-18 03:32N 37°49' W 122°25'0 0.0
2014-Dec-18 02:32N 37°49' W 122°25'0 0.0
2014-Dec-18 01:32N 37°49' W 122°25'0 0.0
2014-Dec-18 00:32N 37°49' W 122°25'0 0.0
2014-Dec-17 23:32N 37°49' W 122°25'0 0.0
2014-Dec-17 22:32N 37°49' W 122°25'0 0.0
2014-Dec-17 21:32N 37°49' W 122°25'0 0.0
2014-Dec-17 20:32N 37°49' W 122°25'0 0.0
2014-Dec-17 19:32N 37°49' W 122°25'0 0.0
2014-Dec-17 18:32N 37°49' W 122°25'0 0.0
2014-Dec-17 17:32N 37°49' W 122°25'0 0.0
2014-Dec-17 16:32N 37°49' W 122°25'0 0.0
2014-Dec-17 15:32N 37°49' W 122°25'0 0.0
2014-Dec-17 14:29N 37°49' W 122°25'0 0.0
2014-Dec-17 13:32N 37°49' W 122°25'0 0.0
2014-Dec-17 12:32N 37°49' W 122°25'0 0.0
2014-Dec-17 11:32N 37°49' W 122°25'0 0.0
2014-Dec-17 10:32N 37°49' W 122°25'0 0.0
2014-Dec-17 09:32N 37°49' W 122°25'0 0.0
2014-Dec-17 08:32N 37°49' W 122°25'0 0.0
2014-Dec-17 07:32N 37°49' W 122°25'0 0.0
2014-Dec-17 06:32N 37°49' W 122°25'0 0.0
2014-Dec-17 05:32N 37°49' W 122°25'0 0.0
2014-Dec-17 04:32N 37°49' W 122°25'0 0.0
2014-Dec-17 03:32N 37°49' W 122°25'0 0.0
2014-Dec-17 02:33N 37°49' W 122°25'0 0.0
2014-Dec-17 01:33N 37°49' W 122°25'0 0.0
2014-Dec-17 00:30N 37°49' W 122°25'0 0.0
2014-Dec-16 23:30N 37°49' W 122°25'0 0.0
2014-Dec-16 22:33N 37°49' W 122°25'0 0.0
2014-Dec-16 21:33N 37°49' W 122°25'0 0.0
2014-Dec-16 20:33N 37°49' W 122°25'0 0.0
2014-Dec-16 19:33N 37°49' W 122°25'0 0.0
2014-Dec-16 18:30N 37°49' W 122°25'0 0.0
2014-Dec-16 17:33N 37°49' W 122°25'0 0.0
2014-Dec-16 16:30N 37°49' W 122°25'0 0.0
2014-Dec-16 15:33N 37°49' W 122°25'0 0.0
2014-Dec-16 14:33N 37°49' W 122°25'0 0.0
2014-Dec-16 13:33N 37°49' W 122°25'0 0.0
2014-Dec-16 12:33N 37°49' W 122°25'0 0.0
2014-Dec-16 11:33N 37°49' W 122°25'0 0.0
2014-Dec-16 10:33N 37°49' W 122°25'0 0.0
2014-Dec-16 09:26N 37°49' W 122°25'0 0.0
2014-Dec-16 08:29N 37°49' W 122°25'0 0.0
2014-Dec-16 07:33N 37°49' W 122°25'0 0.0
2014-Dec-16 06:32N 37°49' W 122°25'0 0.0
2014-Dec-16 05:24N 37°49' W 122°25'0 0.0
2014-Dec-16 04:23N 37°49' W 122°25'0 0.0
2014-Dec-16 03:30N 37°49' W 122°25'0 0.0
2014-Dec-16 02:18N 37°49' W 122°25'0 0.0
2014-Dec-16 01:33N 37°49' W 122°25'0 0.0
2014-Dec-15 23:32N 37°49' W 122°25'0 0.0
2014-Dec-15 22:32N 37°49' W 122°25'0 0.0
2014-Dec-15 21:29N 37°49' W 122°25'0 0.0
2014-Dec-15 20:32N 37°49' W 122°25'0 0.0
2014-Dec-15 19:32N 37°49' W 122°25'0 0.0
2014-Dec-15 18:32N 37°49' W 122°25'0 0.0
2014-Dec-15 17:29N 37°49' W 122°25'0 0.0
2014-Dec-15 16:32N 37°49' W 122°25'0 0.0
2014-Dec-15 15:23N 37°49' W 122°25'0 0.0
2014-Dec-15 14:32N 37°49' W 122°25'0 0.0
2014-Dec-15 13:29N 37°49' W 122°25'0 0.0
2014-Dec-15 12:30N 37°49' W 122°25'0 0.0
2014-Dec-15 11:29N 37°49' W 122°25'0 0.0
2014-Dec-15 10:29N 37°49' W 122°25'0 0.0
2014-Dec-15 09:32N 37°49' W 122°25'0 0.0
2014-Dec-15 08:32N 37°49' W 122°25'0 0.0
2014-Dec-15 07:32N 37°49' W 122°25'0 0.0
2014-Dec-15 06:32N 37°49' W 122°25'0 0.0
2014-Dec-15 05:29N 37°49' W 122°25'0 0.0
2014-Dec-15 04:32N 37°49' W 122°25'0 0.0
2014-Dec-15 03:32N 37°49' W 122°25'0 0.0
2014-Dec-15 02:32N 37°49' W 122°25'0 0.0
2014-Dec-15 01:26N 37°49' W 122°25'0 0.0
2014-Dec-15 00:32N 37°49' W 122°25'0 0.0
2014-Dec-14 23:32N 37°49' W 122°25'0 0.0
2014-Dec-14 22:32N 37°49' W 122°25'0 0.0
2014-Dec-14 21:32N 37°49' W 122°25'0 0.0
2014-Dec-14 20:32N 37°49' W 122°25'0 0.0
2014-Dec-14 19:32N 37°49' W 122°25'0 0.0
2014-Dec-14 18:32N 37°49' W 122°25'0 0.0
2014-Dec-14 17:32N 37°49' W 122°25'0 0.0
2014-Dec-14 16:32N 37°49' W 122°25'0 0.0
2014-Dec-14 15:32N 37°49' W 122°25'0 0.0
2014-Dec-14 14:32N 37°49' W 122°25'0 0.0
2014-Dec-14 13:32N 37°49' W 122°25'0 0.0
2014-Dec-14 12:32N 37°49' W 122°25'0 0.0
2014-Dec-14 11:32N 37°49' W 122°25'0 0.0
2014-Dec-14 10:32N 37°49' W 122°25'0 0.0
2014-Dec-14 09:32N 37°49' W 122°25'0 0.0
2014-Dec-14 08:32N 37°49' W 122°25'0 0.0
2014-Dec-14 07:29N 37°49' W 122°25'0 0.0
2014-Dec-14 06:32N 37°49' W 122°25'0 0.0
2014-Dec-14 05:32N 37°49' W 122°25'0 0.0
2014-Dec-14 04:32N 37°49' W 122°25'0 0.0
2014-Dec-14 03:32N 37°49' W 122°25'0 0.0
2014-Dec-14 02:32N 37°49' W 122°25'0 0.0
2014-Dec-14 01:32N 37°49' W 122°25'0 0.0
2014-Dec-14 00:32N 37°49' W 122°25'0 0.0
2014-Dec-13 23:32N 37°49' W 122°25'0 0.0
2014-Dec-13 22:32N 37°49' W 122°25'0 0.0
2014-Dec-13 21:26N 37°49' W 122°25'0 0.0
2014-Dec-13 20:29N 37°49' W 122°25'0 0.0
2014-Dec-13 19:32N 37°49' W 122°25'0 0.0
2014-Dec-13 18:32N 37°49' W 122°25'0 0.0
2014-Dec-13 17:32N 37°49' W 122°25'0 0.0
2014-Dec-13 16:32N 37°49' W 122°25'0 0.0
2014-Dec-13 15:32N 37°49' W 122°25'0 0.0
2014-Dec-13 14:32N 37°49' W 122°25'0 0.0
2014-Dec-13 13:32N 37°49' W 122°25'0 0.0
2014-Dec-13 12:32N 37°49' W 122°25'0 0.0
2014-Dec-13 11:29N 37°49' W 122°25'0 0.0
2014-Dec-13 10:32N 37°49' W 122°25'0 0.0
2014-Dec-13 09:29N 37°49' W 122°25'0 0.0
2014-Dec-13 08:32N 37°49' W 122°25'0 0.0
2014-Dec-13 07:32N 37°49' W 122°25'0 0.0
2014-Dec-13 06:32N 37°49' W 122°25'0 0.0
2014-Dec-13 05:29N 37°49' W 122°25'0 0.0
2014-Dec-13 04:29N 37°49' W 122°25'0 0.0
2014-Dec-13 03:32N 37°49' W 122°25'0 0.0
2014-Dec-13 02:32N 37°49' W 122°25'0 0.0
2014-Dec-13 01:32N 37°49' W 122°25'0 0.0
2014-Dec-13 00:32N 37°49' W 122°25'0 0.0
2014-Dec-12 23:29N 37°49' W 122°25'0 0.0
2014-Dec-12 22:32N 37°49' W 122°25'0 0.0
2014-Dec-12 21:32N 37°49' W 122°25'  

Dump ship's entire track history